Time;durP1;ratioP1;P1;durP2;ratioP2;P2;SDS_P1;SDS_P2;PMS_P1;PMS_P2;Temp;Humidity;BMP_temperature;BMP_pressure;BME280_temperature;BME280_humidity;BME280_pressure;Samples;Min_cycle;Max_cycle;Signal;HPM_P1;HPM_P2
2022/10/18 00:00:28;;;;;;;15.97;8.20;;;;;;;15.71;100.00;101933.69;5999349;28;20114;-64
2022/10/18 00:03:24;;;;;;;16.77;9.10;;;;;;;15.64;100.00;101934.44;5998686;28;20041;-65
2022/10/18 00:06:19;;;;;;;15.70;8.05;;;;;;;15.65;100.00;101945.03;5999812;28;20270;-65
2022/10/18 00:09:14;;;;;;;16.27;8.67;;;;;;;15.59;100.00;101931.38;5999379;28;20034;-65
2022/10/18 00:12:10;;;;;;;15.48;8.60;;;;;;;15.58;100.00;101922.53;5995806;28;20030;-65
2022/10/18 00:15:06;;;;;;;18.30;8.10;;;;;;;15.55;100.00;101909.44;5999109;28;20034;-65
2022/10/18 00:18:02;;;;;;;16.00;8.50;;;;;;;15.68;100.00;101919.81;5998923;28;20035;-65
2022/10/18 00:21:10;;;;;;;15.27;8.93;;;;;;;15.57;100.00;101928.03;5997416;28;20034;-65
2022/10/18 00:24:05;;;;;;;17.95;8.88;;;;;;;15.46;100.00;101921.88;5998483;28;20070;-65
2022/10/18 00:27:00;;;;;;;14.13;8.10;;;;;;;15.40;100.00;101933.13;5995704;28;20034;-65
2022/10/18 00:29:56;;;;;;;14.43;7.77;;;;;;;15.44;100.00;101950.56;5993676;28;20046;-65
2022/10/18 00:32:51;;;;;;;17.83;8.13;;;;;;;15.37;100.00;101941.44;5998336;28;20034;-65
2022/10/18 00:35:46;;;;;;;15.07;7.63;;;;;;;15.27;100.00;101945.97;5998731;28;20811;-65
2022/10/18 00:38:43;;;;;;;15.10;7.83;;;;;;;15.27;100.00;101953.97;5998722;28;20023;-65
2022/10/18 00:41:38;;;;;;;15.20;8.07;;;;;;;15.21;100.00;101946.56;5997689;28;20353;-65
2022/10/18 00:44:33;;;;;;;18.37;8.77;;;;;;;15.12;100.00;101949.25;6005797;28;20054;-65
2022/10/18 00:47:29;;;;;;;18.77;9.50;;;;;;;15.08;100.00;101943.38;6005447;28;20089;-64
2022/10/18 00:50:26;;;;;;;19.00;9.02;;;;;;;15.13;100.00;101954.47;6005765;28;20030;-65
2022/10/18 00:53:22;;;;;;;19.65;9.45;;;;;;;15.16;100.00;101948.84;6006146;28;20732;-65
2022/10/18 00:56:19;;;;;;;18.25;8.68;;;;;;;15.13;100.00;101940.28;6006873;28;20034;-65
2022/10/18 00:59:16;;;;;;;19.90;8.98;;;;;;;14.94;100.00;101916.28;6006599;28;20027;-65
2022/10/18 01:02:13;;;;;;;16.65;8.40;;;;;;;15.24;100.00;101950.78;5995471;28;20027;-65
2022/10/18 01:05:15;;;;;;;19.67;10.27;;;;;;;15.09;100.00;101934.38;6006336;28;20038;-65
2022/10/18 01:08:38;;;;;;;14.90;7.95;;;;;;;15.12;100.00;101952.78;6006337;28;20538;-64
2022/10/18 01:11:51;;;;;;;19.27;8.93;;;;;;;15.19;100.00;101961.06;6004625;28;20098;-65
2022/10/18 01:14:56;;;;;;;19.00;9.90;;;;;;;15.07;100.00;101963.06;6006050;28;20043;-65
2022/10/18 01:18:03;;;;;;;16.08;8.93;;;;;;;15.04;100.00;101963.34;6004741;28;20027;-65
2022/10/18 01:21:30;;;;;;;18.33;9.00;;;;;;;15.12;100.00;101976.84;6005296;28;20035;-65
2022/10/18 01:24:44;;;;;;;17.65;9.55;;;;;;;14.99;100.00;101962.09;6004296;28;20034;-65
2022/10/18 01:27:44;;;;;;;16.08;8.63;;;;;;;15.05;100.00;101978.41;6006135;28;20035;-65
2022/10/18 01:30:58;;;;;;;19.00;9.55;;;;;;;15.00;100.00;101967.28;6016977;28;20031;-65
2022/10/18 01:34:03;;;;;;;20.45;10.18;;;;;;;15.10;100.00;101983.31;6004789;28;20363;-65
2022/10/18 01:37:00;;;;;;;18.20;8.50;;;;;;;15.05;100.00;101973.06;6004649;28;20042;-65
2022/10/18 01:39:57;;;;;;;16.45;8.82;;;;;;;14.97;100.00;101956.91;6004602;28;20496;-65
2022/10/18 01:42:52;;;;;;;18.13;9.90;;;;;;;15.00;100.00;101939.75;6005448;28;20471;-65
2022/10/18 01:45:48;;;;;;;16.63;9.00;;;;;;;15.04;100.00;101931.28;6005802;28;20042;-64
2022/10/18 01:48:43;;;;;;;18.48;9.75;;;;;;;14.99;100.00;101928.22;6004723;28;20690;-65
2022/10/18 01:51:38;;;;;;;18.48;9.68;;;;;;;15.07;100.00;101941.69;6005293;28;20042;-65
2022/10/18 01:54:36;;;;;;;19.27;9.48;;;;;;;15.08;100.00;101942.53;6002723;28;20522;-65
2022/10/18 01:57:41;;;;;;;15.52;8.70;;;;;;;15.22;100.00;101936.72;6001939;28;20039;-65
2022/10/18 02:00:40;;;;;;;17.92;9.15;;;;;;;15.25;100.00;101933.75;6000163;28;20490;-65
2022/10/18 02:03:39;;;;;;;20.10;10.75;;;;;;;15.25;100.00;101926.56;6001973;28;20089;-65
2022/10/18 02:06:42;;;;;;;16.52;8.10;;;;;;;15.09;100.00;101918.34;6000886;28;20085;-65
2022/10/18 02:09:49;;;;;;;16.17;8.48;;;;;;;15.11;100.00;101926.22;6002110;28;20442;-65
2022/10/18 02:12:45;;;;;;;18.02;8.60;;;;;;;15.04;100.00;101920.59;6000053;28;20031;-65
2022/10/18 02:15:44;;;;;;;15.93;9.02;;;;;;;15.07;100.00;101933.69;6000519;28;20053;-66
2022/10/18 02:18:43;;;;;;;14.90;8.55;;;;;;;14.98;100.00;101934.53;6000561;28;20035;-65
2022/10/18 02:21:41;;;;;;;18.40;9.00;;;;;;;14.91;100.00;101930.78;5999555;28;20478;-65
2022/10/18 02:24:38;;;;;;;17.42;9.38;;;;;;;14.92;100.00;101932.44;5999593;28;20031;-65
2022/10/18 02:27:34;;;;;;;15.93;8.38;;;;;;;14.95;100.00;101926.81;5999457;28;20089;-65
2022/10/18 02:30:35;;;;;;;17.10;9.43;;;;;;;15.19;100.00;101929.81;6001269;28;20390;-65
2022/10/18 02:33:52;;;;;;;19.83;9.35;;;;;;;15.15;100.00;101922.25;5999876;28;20302;-65
2022/10/18 02:36:53;;;;;;;16.60;8.82;;;;;;;15.04;100.00;101912.59;6001260;28;20046;-65
2022/10/18 02:39:49;;;;;;;15.40;8.52;;;;;;;15.03;100.00;101924.25;6000603;28;20045;-65
2022/10/18 02:42:50;;;;;;;15.20;8.75;;;;;;;14.97;100.00;101924.84;5999195;28;20033;-65
2022/10/18 02:45:45;;;;;;;15.27;8.52;;;;;;;14.87;100.00;101908.00;6000375;28;20038;-65
2022/10/18 02:48:40;;;;;;;17.43;9.10;;;;;;;15.01;100.00;101910.19;6000543;28;20038;-65
2022/10/18 02:51:36;;;;;;;14.80;8.17;;;;;;;14.91;100.00;101912.06;6000127;28;20046;-65
2022/10/18 02:54:31;;;;;;;15.00;8.30;;;;;;;14.82;100.00;101910.25;6000326;28;20041;-65
2022/10/18 02:57:26;;;;;;;15.70;8.57;;;;;;;14.72;100.00;101896.09;6001147;28;20271;-65
2022/10/18 03:00:22;;;;;;;15.77;8.77;;;;;;;14.62;100.00;101897.94;5999990;28;20115;-65
2022/10/18 03:03:17;;;;;;;14.97;8.23;;;;;;;14.81;100.00;101911.25;6000274;28;20053;-65
2022/10/18 03:06:12;;;;;;;14.83;8.23;;;;;;;14.81;100.00;101898.72;5999369;28;20038;-65
2022/10/18 03:09:08;;;;;;;15.03;7.50;;;;;;;14.72;100.00;101888.06;6000271;28;20027;-65
2022/10/18 03:12:03;;;;;;;15.88;8.68;;;;;;;14.70;100.00;101896.22;5999992;28;20038;-65
2022/10/18 03:14:59;;;;;;;16.25;8.18;;;;;;;14.76;100.00;101884.13;6000111;28;20074;-65
2022/10/18 03:17:54;;;;;;;18.07;9.00;;;;;;;14.68;100.00;101881.31;6000306;28;20123;-65
2022/10/18 03:20:49;;;;;;;20.53;9.17;;;;;;;14.77;100.00;101891.16;5999679;28;20057;-65
2022/10/18 03:23:45;;;;;;;17.57;9.23;;;;;;;14.64;100.00;101891.47;5999713;28;20348;-65
2022/10/18 03:26:40;;;;;;;17.17;8.83;;;;;;;14.55;100.00;101892.31;6000417;28;20109;-65
2022/10/18 03:29:36;;;;;;;17.77;9.40;;;;;;;14.49;100.00;101892.03;5999974;28;20042;-65
2022/10/18 03:32:32;;;;;;;16.98;8.55;;;;;;;14.65;100.00;101900.28;5999500;28;20023;-65
2022/10/18 03:35:27;;;;;;;19.93;9.13;;;;;;;14.61;100.00;101904.25;5999513;28;20105;-65
2022/10/18 03:38:22;;;;;;;20.23;9.63;;;;;;;14.56;100.00;101910.03;5999652;28;20637;-65
2022/10/18 03:41:19;;;;;;;23.02;10.73;;;;;;;14.60;100.00;101923.91;5999194;28;20027;-65
2022/10/18 03:44:14;;;;;;;23.55;10.95;;;;;;;14.62;100.00;101913.97;5999500;28;20045;-65
2022/10/18 03:47:10;;;;;;;25.53;10.23;;;;;;;14.50;100.00;101880.38;5999751;28;20471;-65
2022/10/18 03:50:06;;;;;;;20.27;9.57;;;;;;;14.61;100.00;101896.25;5998368;28;20034;-65
2022/10/18 03:53:01;;;;;;;20.67;10.32;;;;;;;14.58;100.00;101899.19;5998780;28;20473;-65
2022/10/18 03:55:57;;;;;;;16.40;8.63;;;;;;;14.60;100.00;101886.53;5999396;28;20034;-65
2022/10/18 03:58:52;;;;;;;19.40;9.70;;;;;;;14.53;100.00;101888.97;5998811;28;20030;-65
2022/10/18 04:01:48;;;;;;;20.73;10.37;;;;;;;14.42;100.00;101877.59;5998636;28;20137;-65
2022/10/18 04:04:43;;;;;;;21.45;9.73;;;;;;;14.42;100.00;101881.09;5999299;28;20065;-64
2022/10/18 04:07:38;;;;;;;23.47;10.53;;;;;;;14.54;100.00;101884.47;5999370;28;20465;-65
2022/10/18 04:10:36;;;;;;;22.17;9.73;;;;;;;14.56;100.00;101888.69;5998312;28;20118;-65
2022/10/18 04:13:32;;;;;;;16.02;9.18;;;;;;;14.43;100.00;101880.09;5998854;28;21010;-65
2022/10/18 04:16:27;;;;;;;15.90;7.87;;;;;;;14.53;100.00;101867.59;5999015;28;20034;-65
2022/10/18 04:19:22;;;;;;;18.50;9.25;;;;;;;14.53;100.00;101886.28;5998734;28;20066;-65
2022/10/18 04:22:18;;;;;;;20.13;10.57;;;;;;;14.49;100.00;101886.69;5998064;28;20030;-65
2022/10/18 04:25:13;;;;;;;19.90;9.40;;;;;;;14.58;100.00;101885.84;5998726;28;20113;-65
2022/10/18 04:28:08;;;;;;;24.17;10.73;;;;;;;14.58;100.00;101892.03;5998513;28;20483;-64
2022/10/18 04:31:05;;;;;;;25.85;12.20;;;;;;;14.41;100.00;101870.56;5998418;28;20484;-64
2022/10/18 04:34:01;;;;;;;24.25;10.73;;;;;;;14.54;100.00;101892.47;5998632;28;20030;-64
2022/10/18 04:36:56;;;;;;;24.60;10.25;;;;;;;14.58;100.00;101888.53;5998795;28;20027;-65
2022/10/18 04:39:52;;;;;;;23.17;9.47;;;;;;;14.67;100.00;101879.66;5998682;28;20019;-65
2022/10/18 04:42:47;;;;;;;18.27;9.27;;;;;;;14.72;100.00;101893.41;5997874;28;20023;-65
2022/10/18 04:45:46;;;;;;;17.10;8.97;;;;;;;14.64;100.00;101885.28;5998113;28;20081;-65
2022/10/18 04:48:42;;;;;;;21.13;9.35;;;;;;;14.77;100.00;101891.16;5998868;28;20273;-65
2022/10/18 04:51:37;;;;;;;18.27;9.70;;;;;;;14.68;100.00;101884.84;5997939;28;20374;-64
2022/10/18 04:54:32;;;;;;;17.43;8.63;;;;;;;14.68;100.00;101884.00;5998746;28;20266;-64
2022/10/18 04:57:28;;;;;;;18.43;8.70;;;;;;;14.66;100.00;101894.84;5998599;28;20026;-64
2022/10/18 05:00:23;;;;;;;16.70;8.73;;;;;;;14.75;100.00;101887.78;5995952;28;20290;-64
2022/10/18 05:03:18;;;;;;;19.13;9.43;;;;;;;14.90;100.00;101907.69;5997805;28;20034;-64
2022/10/18 05:06:14;;;;;;;22.47;10.23;;;;;;;14.60;100.00;101887.38;5998117;28;20255;-64
2022/10/18 05:09:09;;;;;;;19.13;9.73;;;;;;;14.73;100.00;101903.13;5992443;28;20061;-64
2022/10/18 05:12:04;;;;;;;22.50;9.63;;;;;;;14.61;100.00;101889.09;5994177;28;20034;-65
2022/10/18 05:15:00;;;;;;;20.65;10.07;;;;;;;14.62;100.00;101895.28;5996918;28;20373;-65
2022/10/18 05:17:55;;;;;;;21.63;9.95;;;;;;;14.68;100.00;101892.00;5997081;28;20030;-64
2022/10/18 05:20:50;;;;;;;21.63;10.17;;;;;;;14.59;100.00;101892.88;5997315;28;20031;-64
2022/10/18 05:23:46;;;;;;;24.23;11.03;;;;;;;14.51;100.00;101882.09;5995601;28;20266;-65
2022/10/18 05:26:41;;;;;;;23.53;11.40;;;;;;;14.49;100.00;101887.53;5997452;28;20031;-65
2022/10/18 05:29:36;;;;;;;23.07;11.23;;;;;;;14.39;100.00;101891.22;5997899;28;20074;-65
2022/10/18 05:32:32;;;;;;;22.83;10.73;;;;;;;14.49;100.00;101902.72;6001456;28;20117;-65
2022/10/18 05:35:27;;;;;;;18.80;10.30;;;;;;;14.47;100.00;101904.69;6001610;28;20034;-65
2022/10/18 05:38:22;;;;;;;21.87;9.63;;;;;;;14.47;100.00;101902.03;6002147;28;20117;-64
2022/10/18 05:41:18;;;;;;;19.73;10.43;;;;;;;14.48;100.00;101912.56;6001112;28;20022;-65
2022/10/18 05:44:13;;;;;;;22.67;10.50;;;;;;;14.39;100.00;101908.06;5998489;28;20026;-65
2022/10/18 05:47:08;;;;;;;22.67;11.23;;;;;;;14.42;100.00;101923.81;6002218;28;20039;-65
2022/10/18 05:50:04;;;;;;;23.87;10.30;;;;;;;14.37;100.00;101915.38;5992369;28;20746;-65
2022/10/18 05:52:59;;;;;;;22.33;10.70;;;;;;;14.43;100.00;101935.34;6002180;28;20066;-65
2022/10/18 05:55:59;;;;;;;20.30;10.20;;;;;;;14.47;100.00;101942.06;6001189;28;20039;-65
2022/10/18 05:58:54;;;;;;;20.67;9.82;;;;;;;14.43;100.00;101940.66;6000635;28;20017;-65
2022/10/18 06:01:49;;;;;;;22.47;10.20;;;;;;;14.32;100.00;101924.78;5997844;28;20037;-65
2022/10/18 06:04:45;;;;;;;20.80;9.70;;;;;;;14.40;100.00;101940.94;6002321;28;20066;-65
2022/10/18 06:07:40;;;;;;;23.67;9.93;;;;;;;14.38;100.00;101933.06;6001750;28;20069;-65
2022/10/18 06:10:39;;;;;;;21.87;10.63;;;;;;;14.46;100.00;101951.06;6000523;28;20039;-65
2022/10/18 06:13:39;;;;;;;23.02;10.70;;;;;;;14.42;100.00;101954.97;6001394;28;20038;-64
2022/10/18 06:16:34;;;;;;;21.35;10.20;;;;;;;14.37;100.00;101935.88;6000043;28;20038;-65
2022/10/18 06:19:30;;;;;;;20.40;10.10;;;;;;;14.37;100.00;101938.56;5993804;28;20089;-65
2022/10/18 06:22:25;;;;;;;22.33;10.20;;;;;;;14.45;100.00;101944.03;5994050;28;20023;-65
2022/10/18 06:25:20;;;;;;;22.40;11.80;;;;;;;14.41;100.00;101937.28;6000946;28;20489;-65
2022/10/18 06:28:16;;;;;;;23.27;10.70;;;;;;;14.39;100.00;101955.25;6001813;28;20081;-65
2022/10/18 06:31:12;;;;;;;22.88;11.23;;;;;;;14.32;100.00;101949.66;6000485;28;20037;-65
2022/10/18 06:34:07;;;;;;;24.52;10.95;;;;;;;14.39;100.00;101941.91;6001141;28;20061;-65
2022/10/18 06:37:03;;;;;;;20.00;10.33;;;;;;;14.37;100.00;101951.91;6000243;28;20034;-66
2022/10/18 06:39:58;;;;;;;26.37;12.67;;;;;;;14.39;100.00;101960.59;6000705;28;20058;-65
2022/10/18 06:42:53;;;;;;;24.10;11.07;;;;;;;14.34;100.00;101953.03;6000491;28;20035;-66
2022/10/18 06:45:49;;;;;;;27.37;11.33;;;;;;;14.40;100.00;101952.47;6000683;28;20043;-65
2022/10/18 06:48:45;;;;;;;29.38;12.43;;;;;;;14.30;100.00;101940.91;6000744;28;20266;-65
2022/10/18 06:51:41;;;;;;;24.98;11.57;;;;;;;14.32;100.00;101941.66;5999281;28;20054;-65
2022/10/18 06:54:36;;;;;;;24.23;11.07;;;;;;;14.38;100.00;101958.94;6000865;28;20088;-65
2022/10/18 06:57:32;;;;;;;27.80;11.43;;;;;;;14.32;100.00;101963.81;6000944;28;20038;-65
2022/10/18 07:00:27;;;;;;;20.53;10.13;;;;;;;14.29;100.00;101966.72;5999531;28;20078;-65
2022/10/18 07:03:23;;;;;;;22.20;11.97;;;;;;;14.24;100.00;101947.63;6000368;28;20360;-65
2022/10/18 07:06:19;;;;;;;25.50;11.05;;;;;;;14.26;100.00;101966.19;6000193;28;20349;-64
2022/10/18 07:09:14;;;;;;;23.17;11.23;;;;;;;14.29;100.00;101966.72;5999739;28;20078;-66
2022/10/18 07:12:10;;;;;;;21.13;11.67;;;;;;;14.34;100.00;101962.84;5999705;28;20390;-65
2022/10/18 07:15:06;;;;;;;23.38;11.52;;;;;;;14.31;100.00;101974.63;5999780;28;20046;-65
2022/10/18 07:18:01;;;;;;;23.10;11.55;;;;;;;14.39;100.00;101972.13;6000218;28;20054;-65
2022/10/18 07:21:00;;;;;;;24.87;11.83;;;;;;;14.50;100.00;101965.81;5999673;28;20035;-65
2022/10/18 07:23:55;;;;;;;27.40;13.02;;;;;;;14.49;100.00;101966.78;6000598;28;20109;-65
2022/10/18 07:26:51;;;;;;;27.75;12.43;;;;;;;14.42;100.00;101958.50;6000094;28;20477;-65
2022/10/18 07:29:47;;;;;;;27.00;12.65;;;;;;;14.42;100.00;101960.31;5999384;28;20035;-65
2022/10/18 07:32:42;;;;;;;29.23;12.95;;;;;;;14.54;100.00;101976.06;5999316;28;20093;-65
2022/10/18 07:35:38;;;;;;;26.73;12.07;;;;;;;14.50;100.00;101971.16;5999723;28;20026;-65
2022/10/18 07:38:34;;;;;;;26.53;11.33;;;;;;;14.42;100.00;101971.84;5999943;28;20266;-64
2022/10/18 07:41:32;;;;;;;26.90;12.95;;;;;;;14.75;100.00;101979.44;5998718;28;20131;-65
2022/10/18 07:44:27;;;;;;;27.17;12.18;;;;;;;14.63;100.00;101959.19;5999482;28;20049;-65
2022/10/18 07:47:22;;;;;;;29.53;13.93;;;;;;;14.71;100.00;101972.69;5999706;28;20042;-65
2022/10/18 07:50:18;;;;;;;29.50;14.17;;;;;;;14.67;100.00;101975.78;5998542;28;20042;-65
2022/10/18 07:53:13;;;;;;;30.87;13.63;;;;;;;14.65;100.00;101973.25;5998771;28;20274;-65
2022/10/18 07:56:14;;;;;;;28.10;12.63;;;;;;;14.69;100.00;101981.81;5998191;28;20030;-64
2022/10/18 07:59:10;;;;;;;30.48;12.45;;;;;;;14.71;100.00;101987.84;5999192;28;20031;-65
2022/10/18 08:02:05;;;;;;;27.95;13.65;;;;;;;14.67;100.00;101986.47;5998760;28;20403;-65
2022/10/18 08:05:01;;;;;;;26.77;12.07;;;;;;;14.68;100.00;101996.13;5998940;28;20470;-64
2022/10/18 08:07:57;;;;;;;28.20;13.90;;;;;;;14.72;100.00;101968.19;5998829;28;20026;-64
2022/10/18 08:10:53;;;;;;;29.10;13.88;;;;;;;14.67;100.00;101970.44;5998357;28;20039;-64
2022/10/18 08:13:49;;;;;;;29.38;12.00;;;;;;;14.78;100.00;101967.63;5998617;28;20085;-65
2022/10/18 08:16:44;;;;;;;27.73;12.23;;;;;;;14.81;100.00;101962.00;5999029;28;20482;-65
2022/10/18 08:19:40;;;;;;;29.48;13.05;;;;;;;14.79;100.00;101950.59;5986780;28;20041;-65
2022/10/18 08:22:35;;;;;;;30.88;13.52;;;;;;;14.78;100.00;101956.94;5998459;28;20023;-65
2022/10/18 08:25:30;;;;;;;29.90;13.57;;;;;;;14.91;100.00;101968.16;5998986;28;20031;-64
2022/10/18 08:28:26;;;;;;;27.20;12.40;;;;;;;14.94;100.00;101972.38;5998531;28;20085;-65
2022/10/18 08:31:21;;;;;;;28.37;13.27;;;;;;;14.93;100.00;101971.53;5998106;28;20178;-65
2022/10/18 08:34:16;;;;;;;31.43;12.33;;;;;;;15.05;100.00;101972.22;5998490;28;20034;-65
2022/10/18 08:37:12;;;;;;;32.35;14.50;;;;;;;15.18;100.00;101965.56;5998880;28;20121;-65
2022/10/18 08:40:11;;;;;;;30.33;13.30;;;;;;;15.30;100.00;101969.75;5998122;28;20130;-65
2022/10/18 08:43:26;;;;;;;27.42;11.93;;;;;;;15.47;100.00;101960.13;5990072;28;20665;-64
2022/10/18 08:46:22;;;;;;;30.63;12.98;;;;;;;15.64;100.00;101939.81;5990139;28;20043;-65
2022/10/18 08:49:25;;;;;;;30.08;13.38;;;;;;;15.88;100.00;101964.16;5998728;28;20065;-65
2022/10/18 08:52:47;;;;;;;27.05;13.00;;;;;;;16.13;100.00;101979.50;5998050;28;20841;-65
2022/10/18 08:55:49;;;;;;;30.70;13.52;;;;;;;16.06;100.00;101976.56;5997740;28;20031;-64
2022/10/18 08:58:44;;;;;;;28.67;13.25;;;;;;;16.44;100.00;101977.31;5998454;28;20043;-64
2022/10/18 09:01:58;;;;;;;32.00;13.75;;;;;;;16.39;100.00;101977.75;5997397;28;20046;-64
2022/10/18 09:05:16;;;;;;;29.60;12.38;;;;;;;16.63;100.00;101967.28;6001407;28;20158;-65
2022/10/18 09:08:57;;;;;;;31.58;14.68;;;;;;;16.87;100.00;101966.66;6003663;28;20035;-64
2022/10/18 09:11:57;;;;;;;30.00;14.15;;;;;;;16.73;100.00;101971.72;5953269;29;20045;-65
2022/10/18 09:15:15;;;;;;;30.95;13.75;;;;;;;16.73;100.00;101990.50;5953872;29;20031;-64
2022/10/18 09:18:43;;;;;;;30.42;13.82;;;;;;;16.62;100.00;101987.06;5999190;28;20035;-64
2022/10/18 09:21:50;;;;;;;30.17;13.50;;;;;;;16.39;100.00;101991.16;6002425;28;20034;-64
2022/10/18 09:25:10;;;;;;;28.35;13.32;;;;;;;16.38;100.00;101997.50;6002943;28;20113;-64
2022/10/18 09:28:34;;;;;;;31.50;14.38;;;;;;;16.48;100.00;101990.25;6000103;28;20117;-64
2022/10/18 09:31:45;;;;;;;30.52;14.20;;;;;;;16.49;100.00;102008.00;6001047;28;20374;-64
2022/10/18 09:34:51;;;;;;;28.85;12.73;;;;;;;16.43;100.00;102008.59;6001111;28;20110;-64
2022/10/18 09:37:47;;;;;;;29.92;13.75;;;;;;;16.31;100.00;102001.78;6001703;28;20410;-64
2022/10/18 09:40:51;;;;;;;31.50;15.20;;;;;;;16.25;100.00;102005.03;6000331;28;20414;-64
2022/10/18 09:43:51;;;;;;;31.17;14.13;;;;;;;16.37;100.00;102021.75;6001406;28;20114;-64
2022/10/18 09:46:51;;;;;;;29.63;13.25;;;;;;;16.32;100.00;102011.50;6001222;28;20524;-64
2022/10/18 09:49:50;;;;;;;33.30;13.23;;;;;;;16.32;100.00;102021.38;6001335;28;20529;-64
2022/10/18 09:53:10;;;;;;;31.13;14.13;;;;;;;16.20;100.00;102012.69;6000167;28;20093;-64
2022/10/18 09:56:13;;;;;;;33.80;14.55;;;;;;;16.13;100.00;102003.59;5999273;28;20051;-64
2022/10/18 09:59:34;;;;;;;32.33;14.55;;;;;;;16.31;100.00;102028.53;5990321;28;20046;-64
2022/10/18 10:02:30;;;;;;;28.05;12.82;;;;;;;16.27;100.00;102008.44;6000462;28;20558;-64
2022/10/18 10:05:25;;;;;;;31.70;14.20;;;;;;;16.31;100.00;102027.69;5994529;28;20039;-64
2022/10/18 10:08:31;;;;;;;32.27;13.80;;;;;;;16.28;100.00;102023.50;6000886;28;20674;-65
2022/10/18 10:11:39;;;;;;;33.00;14.55;;;;;;;16.32;100.00;102024.88;6001217;28;20278;-64
2022/10/18 10:14:42;;;;;;;37.70;14.05;;;;;;;16.26;100.00;102012.09;6001420;28;20042;-65
2022/10/18 10:17:37;;;;;;;32.88;14.63;;;;;;;16.18;100.00;102022.72;6001765;28;20089;-65
2022/10/18 10:20:41;;;;;;;30.57;13.67;;;;;;;16.21;100.00;102018.91;5999880;28;20108;-65
2022/10/18 10:23:43;;;;;;;32.58;15.05;;;;;;;16.30;100.00;102032.25;6000371;28;20329;-65
2022/10/18 10:26:39;;;;;;;34.67;14.32;;;;;;;16.40;100.00;102019.63;6001629;28;20039;-65
2022/10/18 10:29:45;;;;;;;31.43;14.57;;;;;;;16.44;100.00;102020.16;6001745;28;20403;-65
2022/10/18 10:32:46;;;;;;;32.33;13.55;;;;;;;16.53;100.00;102025.47;6000790;28;20258;-66
2022/10/18 10:35:41;;;;;;;28.80;13.32;;;;;;;16.72;100.00;102032.50;6001573;28;20030;-64
2022/10/18 10:38:36;;;;;;;32.70;13.83;;;;;;;16.73;100.00;102030.66;6001330;28;20560;-65
2022/10/18 10:41:32;;;;;;;29.50;14.13;;;;;;;16.62;100.00;102010.31;6000494;28;20432;-65
2022/10/18 10:44:31;;;;;;;27.73;12.60;;;;;;;16.78;100.00;102023.00;6001353;28;20286;-64
2022/10/18 10:47:30;;;;;;;27.35;13.50;;;;;;;16.97;100.00;102038.91;5999937;28;20039;-65
2022/10/18 10:50:27;;;;;;;28.98;12.23;;;;;;;16.79;99.75;102030.06;5999187;28;20478;-65
2022/10/18 10:53:39;;;;;;;28.98;13.38;;;;;;;16.66;98.96;102033.97;6000987;28;20049;-65
2022/10/18 10:56:37;;;;;;;33.33;12.65;;;;;;;16.65;99.96;102040.34;5999699;28;20034;-65
2022/10/18 10:59:45;;;;;;;25.77;12.07;;;;;;;16.65;99.79;102026.94;5999516;28;20058;-65
2022/10/18 11:02:41;;;;;;;26.83;11.40;;;;;;;16.60;99.32;102010.47;5998522;28;20105;-65
2022/10/18 11:05:45;;;;;;;25.83;12.47;;;;;;;16.59;98.31;102032.91;5999831;28;20039;-66
2022/10/18 11:08:42;;;;;;;26.85;11.65;;;;;;;16.75;99.25;102021.47;6000149;28;20266;-65
2022/10/18 11:11:45;;;;;;;28.25;11.38;;;;;;;16.84;99.20;102022.41;6000187;28;20307;-66
2022/10/18 11:14:44;;;;;;;27.40;12.30;;;;;;;16.93;98.92;102026.84;5998713;28;20045;-66
2022/10/18 11:17:56;;;;;;;23.70;10.45;;;;;;;17.16;95.92;102023.50;6003291;28;20074;-66
2022/10/18 11:21:10;;;;;;;22.40;11.65;;;;;;;17.53;94.48;102009.84;5999708;28;20031;-66
2022/10/18 11:24:12;;;;;;;17.98;9.95;;;;;;;17.75;90.05;102014.66;5999472;28;20114;-65
2022/10/18 11:27:29;;;;;;;23.50;9.80;;;;;;;17.95;88.81;102017.09;5997781;28;20041;-66
2022/10/18 11:30:46;;;;;;;21.20;8.73;;;;;;;18.32;86.63;102021.06;5995155;28;20546;-65
2022/10/18 11:33:58;;;;;;;18.50;8.95;;;;;;;18.46;85.60;102019.59;5999867;28;20145;-66
2022/10/18 11:37:26;;;;;;;20.10;9.50;;;;;;;18.40;82.84;102007.66;5998518;28;20503;-66
2022/10/18 11:40:46;;;;;;;24.02;9.75;;;;;;;18.57;82.25;102021.97;5979864;28;20035;-65
2022/10/18 11:43:53;;;;;;;17.23;9.70;;;;;;;18.59;83.16;101992.28;5999393;28;20030;-65
2022/10/18 11:47:01;;;;;;;20.38;8.77;;;;;;;18.35;84.93;102001.09;5998257;28;20042;-65
2022/10/18 11:50:17;;;;;;;22.67;10.27;;;;;;;17.83;85.35;102001.28;5992980;28;20390;-65
2022/10/18 11:53:32;;;;;;;20.42;9.40;;;;;;;17.57;86.72;102008.53;5999989;28;20058;-65
2022/10/18 11:56:46;;;;;;;19.48;8.88;;;;;;;17.22;87.63;101995.22;5998411;28;20128;-65
2022/10/18 11:59:58;;;;;;;16.60;7.93;;;;;;;17.25;88.63;101997.59;5999687;28;20719;-65
2022/10/18 12:02:56;;;;;;;16.45;6.75;;;;;;;17.16;85.45;102002.06;5996782;28;20491;-65
2022/10/18 12:05:53;;;;;;;16.48;8.00;;;;;;;17.05;85.72;101990.75;5991886;28;20070;-65
2022/10/18 12:08:53;;;;;;;15.00;7.43;;;;;;;16.84;85.76;101991.09;5997731;28;20378;-65
2022/10/18 12:11:56;;;;;;;20.10;7.45;;;;;;;16.74;87.92;101984.16;5997602;28;20039;-65
2022/10/18 12:14:57;;;;;;;21.40;7.80;;;;;;;16.75;88.20;101983.97;5997867;28;20031;-65
2022/10/18 12:17:55;;;;;;;16.20;8.25;;;;;;;16.71;88.44;101976.41;5999321;28;20459;-65
2022/10/18 12:20:54;;;;;;;16.27;7.07;;;;;;;16.82;87.43;101981.53;5997228;28;20026;-65
2022/10/18 12:24:05;;;;;;;14.55;7.38;;;;;;;17.08;86.88;101982.38;5998207;28;20035;-65
2022/10/18 12:27:01;;;;;;;13.95;6.93;;;;;;;17.13;85.98;101972.88;5997985;28;20398;-66
2022/10/18 12:30:01;;;;;;;14.52;7.10;;;;;;;17.47;85.34;101989.00;5998932;28;20120;-65
2022/10/18 12:33:01;;;;;;;;;;;;;;;17.58;83.76;101985.25;5997884;28;20053;-65
2022/10/18 12:36:21;;;;;;;9.93;4.75;;;;;;;17.91;82.27;101975.47;5998526;28;20305;-65
2022/10/18 12:39:24;;;;;;;12.77;5.72;;;;;;;18.36;81.87;101965.19;5997591;28;20035;-65
2022/10/18 12:42:24;;;;;;;15.25;5.72;;;;;;;18.26;80.72;101967.19;5998166;28;20030;-65
2022/10/18 12:45:24;;;;;;;;;;;;;;;18.13;78.05;101974.84;5999003;28;20031;-65
2022/10/18 12:48:25;;;;;;;8.95;4.82;;;;;;;17.95;78.72;101987.56;5998582;28;19910;-65
2022/10/18 12:51:21;;;;;;;12.18;5.35;;;;;;;17.85;78.58;101972.41;5997980;28;20363;-65
2022/10/18 12:54:19;;;;;;;9.13;3.65;;;;;;;17.81;77.51;101960.34;5997101;28;20030;-65
2022/10/18 12:57:23;;;;;;;9.63;3.22;;;;;;;17.84;76.16;101961.88;5998885;28;20034;-65
2022/10/18 13:00:30;;;;;;;11.25;3.67;;;;;;;17.82;75.26;101962.03;5998030;28;20035;-66
2022/10/18 13:03:25;;;;;;;13.50;3.42;;;;;;;17.76;76.88;101951.94;5998522;28;20050;-65
2022/10/18 13:06:22;;;;;;;10.97;4.00;;;;;;;17.68;76.50;101959.97;5998662;28;20118;-66
2022/10/18 13:09:19;;;;;;;9.32;2.80;;;;;;;17.71;74.53;101967.69;5997219;28;20109;-66
2022/10/18 13:12:15;;;;;;;7.30;3.25;;;;;;;17.68;75.70;101984.13;5998161;28;20479;-65
2022/10/18 13:15:40;;;;;;;9.93;3.47;;;;;;;17.75;73.83;101981.59;5998318;28;20037;-65
2022/10/18 13:18:45;;;;;;;9.55;2.97;;;;;;;17.79;73.90;101991.88;5988225;28;20034;-66
2022/10/18 13:21:45;;;;;;;10.70;2.85;;;;;;;17.55;73.98;101974.81;5997331;28;20787;-65
2022/10/18 13:24:52;;;;;;;;;;;;;;;17.64;74.15;101982.75;5999117;28;20037;-66
2022/10/18 13:27:55;;;;;;;7.18;1.83;;;;;;;17.57;68.96;101973.66;5998261;28;20033;-65
2022/10/18 13:31:16;;;;;;;9.00;1.48;;;;;;;17.61;65.86;101980.38;5998077;28;20046;-65
2022/10/18 13:34:23;;;;;;;8.45;1.42;;;;;;;17.55;66.25;101988.25;5997090;28;20081;-65